sensor_id;sensor_type;location;lat;lon;timestamp;pressure;altitude;pressure_sealevel;temperature;humidity
41596;BME280;27283;52.504;13.358;2022-12-05T00:01:51;101477.63;;;3.64;93.94
41596;BME280;27283;52.504;13.358;2022-12-05T00:04:25;101482.97;;;3.64;94.49
41596;BME280;27283;52.504;13.358;2022-12-05T00:06:57;101491.34;;;3.98;92.57
41596;BME280;27283;52.504;13.358;2022-12-05T00:09:30;101483.00;;;3.77;92.94
41596;BME280;27283;52.504;13.358;2022-12-05T00:12:02;101489.50;;;3.98;92.60
41596;BME280;27283;52.504;13.358;2022-12-05T00:14:35;101495.28;;;4.05;92.29
41596;BME280;27283;52.504;13.358;2022-12-05T00:17:10;101493.06;;;4.24;90.56
41596;BME280;27283;52.504;13.358;2022-12-05T00:19:42;101484.63;;;4.18;91.69
41596;BME280;27283;52.504;13.358;2022-12-05T00:22:19;101482.28;;;4.00;91.64
41596;BME280;27283;52.504;13.358;2022-12-05T00:24:52;101485.56;;;3.78;93.28
41596;BME280;27283;52.504;13.358;2022-12-05T00:27:24;101490.59;;;3.96;93.37
41596;BME280;27283;52.504;13.358;2022-12-05T00:29:57;101490.81;;;4.31;91.04
41596;BME280;27283;52.504;13.358;2022-12-05T00:33:00;101492.53;;;4.32;90.67
41596;BME280;27283;52.504;13.358;2022-12-05T00:35:33;101494.97;;;4.35;90.59
41596;BME280;27283;52.504;13.358;2022-12-05T00:38:05;101500.50;;;4.32;90.57
41596;BME280;27283;52.504;13.358;2022-12-05T00:40:37;101498.69;;;4.20;91.21
41596;BME280;27283;52.504;13.358;2022-12-05T00:43:09;101501.34;;;4.07;91.90
41596;BME280;27283;52.504;13.358;2022-12-05T00:45:42;101499.97;;;4.27;90.87
41596;BME280;27283;52.504;13.358;2022-12-05T00:48:16;101500.59;;;4.18;91.14
41596;BME280;27283;52.504;13.358;2022-12-05T00:50:49;101497.63;;;4.22;90.85
41596;BME280;27283;52.504;13.358;2022-12-05T00:53:21;101492.09;;;4.13;91.65
41596;BME280;27283;52.504;13.358;2022-12-05T00:55:53;101482.50;;;4.36;90.55
41596;BME280;27283;52.504;13.358;2022-12-05T00:58:35;101487.09;;;4.34;90.63
41596;BME280;27283;52.504;13.358;2022-12-05T01:01:09;101490.06;;;4.29;90.60
41596;BME280;27283;52.504;13.358;2022-12-05T01:03:44;101489.31;;;3.88;92.61
41596;BME280;27283;52.504;13.358;2022-12-05T01:06:17;101482.41;;;3.99;92.94
41596;BME280;27283;52.504;13.358;2022-12-05T01:08:49;101486.56;;;4.41;90.44
41596;BME280;27283;52.504;13.358;2022-12-05T01:11:23;101481.31;;;4.01;92.55
41596;BME280;27283;52.504;13.358;2022-12-05T01:13:56;101481.22;;;4.16;92.54
41596;BME280;27283;52.504;13.358;2022-12-05T01:17:05;101469.72;;;4.28;90.92
41596;BME280;27283;52.504;13.358;2022-12-05T01:19:52;101467.16;;;4.26;91.35
41596;BME280;27283;52.504;13.358;2022-12-05T01:22:25;101466.22;;;4.15;91.63
41596;BME280;27283;52.504;13.358;2022-12-05T01:24:57;101472.91;;;3.95;92.31
41596;BME280;27283;52.504;13.358;2022-12-05T01:27:29;101462.38;;;3.93;93.22
41596;BME280;27283;52.504;13.358;2022-12-05T01:30:02;101459.59;;;3.82;94.04
41596;BME280;27283;52.504;13.358;2022-12-05T01:32:34;101463.75;;;3.86;94.56
41596;BME280;27283;52.504;13.358;2022-12-05T01:35:09;101460.09;;;3.74;94.12
41596;BME280;27283;52.504;13.358;2022-12-05T01:37:42;101457.28;;;4.16;93.20
41596;BME280;27283;52.504;13.358;2022-12-05T01:40:14;101460.56;;;4.32;91.55
41596;BME280;27283;52.504;13.358;2022-12-05T01:42:47;101460.25;;;3.85;93.97
41596;BME280;27283;52.504;13.358;2022-12-05T01:45:23;101459.50;;;4.22;92.80
41596;BME280;27283;52.504;13.358;2022-12-05T01:47:59;101455.38;;;4.05;92.96
41596;BME280;27283;52.504;13.358;2022-12-05T01:50:36;101455.56;;;3.89;93.91
41596;BME280;27283;52.504;13.358;2022-12-05T01:53:09;101455.88;;;3.84;94.73
41596;BME280;27283;52.504;13.358;2022-12-05T01:55:41;101452.69;;;3.79;94.41
41596;BME280;27283;52.504;13.358;2022-12-05T01:58:15;101458.09;;;3.90;94.57
41596;BME280;27283;52.504;13.358;2022-12-05T02:00:47;101449.19;;;3.92;94.17
41596;BME280;27283;52.504;13.358;2022-12-05T02:03:20;101451.19;;;3.88;94.22
41596;BME280;27283;52.504;13.358;2022-12-05T02:05:57;101453.84;;;4.26;93.21
41596;BME280;27283;52.504;13.358;2022-12-05T02:08:30;101452.16;;;4.38;91.73
41596;BME280;27283;52.504;13.358;2022-12-05T02:11:05;101450.56;;;3.97;93.31
41596;BME280;27283;52.504;13.358;2022-12-05T02:13:51;101451.19;;;3.88;94.25
41596;BME280;27283;52.504;13.358;2022-12-05T02:16:39;101447.38;;;3.79;94.66
41596;BME280;27283;52.504;13.358;2022-12-05T02:22:42;101448.97;;;3.95;93.67
41596;BME280;27283;52.504;13.358;2022-12-05T02:25:40;101447.16;;;4.08;93.27
41596;BME280;27283;52.504;13.358;2022-12-05T02:28:48;101450.13;;;3.78;95.28
41596;BME280;27283;52.504;13.358;2022-12-05T02:31:31;101450.66;;;3.83;94.80
41596;BME280;27283;52.504;13.358;2022-12-05T02:34:11;101454.56;;;3.77;94.90
41596;BME280;27283;52.504;13.358;2022-12-05T02:36:51;101460.44;;;3.95;95.33
41596;BME280;27283;52.504;13.358;2022-12-05T02:39:34;101461.63;;;4.04;93.81
41596;BME280;27283;52.504;13.358;2022-12-05T02:42:11;101453.56;;;3.93;93.82
41596;BME280;27283;52.504;13.358;2022-12-05T02:44:47;101451.41;;;3.72;94.91
41596;BME280;27283;52.504;13.358;2022-12-05T02:47:29;101449.13;;;3.53;96.74
41596;BME280;27283;52.504;13.358;2022-12-05T02:50:06;101448.09;;;3.68;96.15
41596;BME280;27283;52.504;13.358;2022-12-05T02:52:40;101451.00;;;3.91;95.18
41596;BME280;27283;52.504;13.358;2022-12-05T02:55:13;101459.41;;;3.98;94.28
41596;BME280;27283;52.504;13.358;2022-12-05T02:57:51;101443.06;;;3.51;96.47
41596;BME280;27283;52.504;13.358;2022-12-05T03:00:23;101447.78;;;3.33;98.21
41596;BME280;27283;52.504;13.358;2022-12-05T03:02:59;101444.25;;;3.60;97.88
41596;BME280;27283;52.504;13.358;2022-12-05T03:05:38;101435.44;;;3.72;97.21
41596;BME280;27283;52.504;13.358;2022-12-05T03:08:15;101430.97;;;3.98;95.83
41596;BME280;27283;52.504;13.358;2022-12-05T03:10:50;101437.16;;;4.24;94.61
41596;BME280;27283;52.504;13.358;2022-12-05T03:13:28;101424.59;;;4.14;94.78
41596;BME280;27283;52.504;13.358;2022-12-05T03:16:07;101438.41;;;3.80;95.98
41596;BME280;27283;52.504;13.358;2022-12-05T03:18:48;101432.66;;;4.25;94.83
41596;BME280;27283;52.504;13.358;2022-12-05T03:21:30;101427.34;;;4.12;95.67
41596;BME280;27283;52.504;13.358;2022-12-05T03:24:08;101432.13;;;3.81;96.07
41596;BME280;27283;52.504;13.358;2022-12-05T03:26:49;101434.94;;;3.93;96.06
41596;BME280;27283;52.504;13.358;2022-12-05T03:29:27;101433.13;;;3.93;95.29
41596;BME280;27283;52.504;13.358;2022-12-05T03:32:10;101429.78;;;3.77;96.21
41596;BME280;27283;52.504;13.358;2022-12-05T03:35:00;101430.75;;;3.76;97.52
41596;BME280;27283;52.504;13.358;2022-12-05T03:37:41;101436.41;;;3.97;95.82
41596;BME280;27283;52.504;13.358;2022-12-05T03:40:25;101436.19;;;3.87;95.15
41596;BME280;27283;52.504;13.358;2022-12-05T03:43:03;101429.38;;;3.83;95.39
41596;BME280;27283;52.504;13.358;2022-12-05T03:45:44;101423.59;;;4.40;93.01
41596;BME280;27283;52.504;13.358;2022-12-05T03:48:21;101432.88;;;4.22;93.61
41596;BME280;27283;52.504;13.358;2022-12-05T03:51:00;101436.81;;;3.90;94.23
41596;BME280;27283;52.504;13.358;2022-12-05T03:53:36;101425.88;;;3.82;95.43
41596;BME280;27283;52.504;13.358;2022-12-05T03:56:13;101433.66;;;3.85;95.31
41596;BME280;27283;52.504;13.358;2022-12-05T03:58:50;101428.63;;;3.94;94.28
41596;BME280;27283;52.504;13.358;2022-12-05T04:01:27;101424.47;;;3.77;94.26
41596;BME280;27283;52.504;13.358;2022-12-05T04:04:04;101423.63;;;3.89;94.74
41596;BME280;27283;52.504;13.358;2022-12-05T04:06:45;101428.66;;;4.06;94.66
41596;BME280;27283;52.504;13.358;2022-12-05T04:09:23;101425.13;;;4.19;94.05
41596;BME280;27283;52.504;13.358;2022-12-05T04:12:00;101427.34;;;4.25;92.97
41596;BME280;27283;52.504;13.358;2022-12-05T04:14:36;101434.81;;;4.20;94.15
41596;BME280;27283;52.504;13.358;2022-12-05T04:17:16;101425.31;;;4.03;93.61
41596;BME280;27283;52.504;13.358;2022-12-05T04:19:51;101435.66;;;4.07;93.63
41596;BME280;27283;52.504;13.358;2022-12-05T04:22:39;101429.50;;;3.94;94.03
41596;BME280;27283;52.504;13.358;2022-12-05T04:25:14;101432.75;;;3.59;94.95
41596;BME280;27283;52.504;13.358;2022-12-05T04:28:09;101431.38;;;3.66;95.61
41596;BME280;27283;52.504;13.358;2022-12-05T04:30:53;101428.72;;;3.53;96.39
41596;BME280;27283;52.504;13.358;2022-12-05T04:33:35;101426.59;;;3.59;95.73
41596;BME280;27283;52.504;13.358;2022-12-05T04:36:15;101427.72;;;3.54;95.96
41596;BME280;27283;52.504;13.358;2022-12-05T04:38:56;101426.72;;;3.70;95.76
41596;BME280;27283;52.504;13.358;2022-12-05T04:41:32;101430.97;;;3.85;94.15
41596;BME280;27283;52.504;13.358;2022-12-05T04:44:07;101426.41;;;4.00;94.17
41596;BME280;27283;52.504;13.358;2022-12-05T04:46:42;101420.44;;;4.10;94.18
41596;BME280;27283;52.504;13.358;2022-12-05T04:49:18;101429.06;;;4.00;92.57
41596;BME280;27283;52.504;13.358;2022-12-05T04:51:53;101424.06;;;3.70;94.76
41596;BME280;27283;52.504;13.358;2022-12-05T04:54:31;101422.88;;;4.00;94.04
41596;BME280;27283;52.504;13.358;2022-12-05T04:57:13;101424.69;;;4.12;93.59
41596;BME280;27283;52.504;13.358;2022-12-05T04:59:47;101422.69;;;4.16;92.71
41596;BME280;27283;52.504;13.358;2022-12-05T05:02:23;101425.22;;;4.04;93.50
41596;BME280;27283;52.504;13.358;2022-12-05T05:05:00;101430.13;;;4.11;93.08
41596;BME280;27283;52.504;13.358;2022-12-05T05:07:45;101428.00;;;3.90;93.56
41596;BME280;27283;52.504;13.358;2022-12-05T05:10:24;101420.97;;;4.15;92.86
41596;BME280;27283;52.504;13.358;2022-12-05T05:12:57;101426.19;;;4.16;92.53
41596;BME280;27283;52.504;13.358;2022-12-05T05:15:30;101420.41;;;4.35;90.78
41596;BME280;27283;52.504;13.358;2022-12-05T05:18:02;101429.81;;;3.89;92.67
41596;BME280;27283;52.504;13.358;2022-12-05T05:20:34;101426.28;;;3.89;94.18
41596;BME280;27283;52.504;13.358;2022-12-05T05:23:06;101425.09;;;3.80;94.42
41596;BME280;27283;52.504;13.358;2022-12-05T05:25:40;101424.78;;;4.23;92.82
41596;BME280;27283;52.504;13.358;2022-12-05T05:28:12;101429.50;;;3.94;93.35
41596;BME280;27283;52.504;13.358;2022-12-05T05:30:44;101433.13;;;3.93;94.03
41596;BME280;27283;52.504;13.358;2022-12-05T05:33:16;101424.06;;;3.96;94.29
41596;BME280;27283;52.504;13.358;2022-12-05T05:35:48;101430.44;;;3.93;93.04
41596;BME280;27283;52.504;13.358;2022-12-05T05:38:20;101429.38;;;3.83;93.70
41596;BME280;27283;52.504;13.358;2022-12-05T05:40:55;101433.84;;;3.95;93.54
41596;BME280;27283;52.504;13.358;2022-12-05T05:43:26;101427.97;;;3.77;94.32
41596;BME280;27283;52.504;13.358;2022-12-05T05:46:02;101427.78;;;3.93;94.44
41596;BME280;27283;52.504;13.358;2022-12-05T05:48:35;101425.31;;;4.03;93.61
41596;BME280;27283;52.504;13.358;2022-12-05T05:51:09;101431.72;;;3.87;93.72
41596;BME280;27283;52.504;13.358;2022-12-05T05:53:41;101431.19;;;3.82;93.00
41596;BME280;27283;52.504;13.358;2022-12-05T05:56:17;101429.06;;;4.00;93.44
41596;BME280;27283;52.504;13.358;2022-12-05T05:59:08;101428.75;;;3.92;93.28
41596;BME280;27283;52.504;13.358;2022-12-05T06:01:40;101436.06;;;4.01;93.31
41596;BME280;27283;52.504;13.358;2022-12-05T06:04:12;101431.19;;;3.82;93.32
41596;BME280;27283;52.504;13.358;2022-12-05T06:06:45;101433.31;;;3.90;93.68
41596;BME280;27283;52.504;13.358;2022-12-05T06:09:17;101438.09;;;4.11;92.50
41596;BME280;27283;52.504;13.358;2022-12-05T06:11:52;101438.22;;;4.22;92.22
41596;BME280;27283;52.504;13.358;2022-12-05T06:14:24;101440.47;;;4.15;91.66
41596;BME280;27283;52.504;13.358;2022-12-05T06:16:57;101437.16;;;3.86;92.42
41596;BME280;27283;52.504;13.358;2022-12-05T06:19:29;101437.78;;;4.02;92.73
41596;BME280;27283;52.504;13.358;2022-12-05T06:22:01;101442.16;;;4.03;92.38
41596;BME280;27283;52.504;13.358;2022-12-05T06:24:33;101441.41;;;3.88;92.33
41596;BME280;27283;52.504;13.358;2022-12-05T06:27:09;101445.56;;;4.05;92.23
41596;BME280;27283;52.504;13.358;2022-12-05T06:29:41;101449.69;;;3.97;92.57
41596;BME280;27283;52.504;13.358;2022-12-05T06:32:15;101448.66;;;3.99;92.32
41596;BME280;27283;52.504;13.358;2022-12-05T06:34:47;101452.25;;;3.98;92.49
41596;BME280;27283;52.504;13.358;2022-12-05T06:37:19;101450.03;;;3.79;93.26
41596;BME280;27283;52.504;13.358;2022-12-05T06:39:51;101464.19;;;4.05;92.47
41596;BME280;27283;52.504;13.358;2022-12-05T06:42:26;101454.94;;;4.11;92.19
41596;BME280;27283;52.504;13.358;2022-12-05T06:44:58;101465.56;;;4.24;92.37
41596;BME280;27283;52.504;13.358;2022-12-05T06:47:32;101457.59;;;4.11;92.54
41596;BME280;27283;52.504;13.358;2022-12-05T06:50:07;101458.53;;;4.10;93.29
41596;BME280;27283;52.504;13.358;2022-12-05T06:52:39;101465.03;;;4.32;91.97
41596;BME280;27283;52.504;13.358;2022-12-05T06:55:11;101468.34;;;4.22;92.68
41596;BME280;27283;52.504;13.358;2022-12-05T06:57:48;101479.97;;;4.21;92.36
41596;BME280;27283;52.504;13.358;2022-12-05T07:00:22;101467.75;;;4.56;91.71
41596;BME280;27283;52.504;13.358;2022-12-05T07:03:09;101465.75;;;4.59;91.06
41596;BME280;27283;52.504;13.358;2022-12-05T07:05:41;101467.78;;;4.43;91.19
41596;BME280;27283;52.504;13.358;2022-12-05T07:08:14;101471.44;;;4.29;92.41
41596;BME280;27283;52.504;13.358;2022-12-05T07:10:50;101472.53;;;4.76;89.51
41596;BME280;27283;52.504;13.358;2022-12-05T07:13:27;101474.41;;;4.37;91.12
41596;BME280;27283;52.504;13.358;2022-12-05T07:15:59;101485.59;;;4.04;92.42
41596;BME280;27283;52.504;13.358;2022-12-05T07:18:32;101482.28;;;4.13;93.81
41596;BME280;27283;52.504;13.358;2022-12-05T07:21:11;101481.88;;;4.32;92.45
41596;BME280;27283;52.504;13.358;2022-12-05T07:23:45;101486.78;;;4.13;93.22
41596;BME280;27283;52.504;13.358;2022-12-05T07:26:20;101488.97;;;4.06;93.11
41596;BME280;27283;52.504;13.358;2022-12-05T07:28:58;101485.81;;;4.26;92.66
41596;BME280;27283;52.504;13.358;2022-12-05T07:31:31;101487.94;;;4.08;93.66
41596;BME280;27283;52.504;13.358;2022-12-05T07:34:04;101483.34;;;3.98;93.95
41596;BME280;27283;52.504;13.358;2022-12-05T07:36:45;101489.53;;;4.11;93.15
41596;BME280;27283;52.504;13.358;2022-12-05T07:39:17;101492.41;;;4.08;93.75
41596;BME280;27283;52.504;13.358;2022-12-05T07:41:49;101479.75;;;3.99;93.35
41596;BME280;27283;52.504;13.358;2022-12-05T07:44:26;101478.25;;;3.95;93.38
41596;BME280;27283;52.504;13.358;2022-12-05T07:46:59;101476.31;;;4.35;93.11
41596;BME280;27283;52.504;13.358;2022-12-05T07:49:32;101483.75;;;4.04;93.80
41596;BME280;27283;52.504;13.358;2022-12-05T07:52:04;101493.69;;;4.28;93.15
41596;BME280;27283;52.504;13.358;2022-12-05T07:54:37;101476.53;;;3.94;93.55
41596;BME280;27283;52.504;13.358;2022-12-05T07:57:09;101486.44;;;4.04;93.31
41596;BME280;27283;52.504;13.358;2022-12-05T07:59:44;101477.50;;;4.31;92.54
41596;BME280;27283;52.504;13.358;2022-12-05T08:02:16;101487.16;;;4.45;92.31
41596;BME280;27283;52.504;13.358;2022-12-05T08:04:48;101487.94;;;4.21;92.30
41596;BME280;27283;52.504;13.358;2022-12-05T08:07:23;101487.50;;;4.40;91.73
41596;BME280;27283;52.504;13.358;2022-12-05T08:09:55;101490.91;;;4.55;91.07
41596;BME280;27283;52.504;13.358;2022-12-05T08:12:27;101488.47;;;4.39;91.48
41596;BME280;27283;52.504;13.358;2022-12-05T08:15:01;101487.28;;;4.56;91.14
41596;BME280;27283;52.504;13.358;2022-12-05T08:17:35;101492.59;;;4.43;91.31
41596;BME280;27283;52.504;13.358;2022-12-05T08:20:08;101492.63;;;4.18;92.49
41596;BME280;27283;52.504;13.358;2022-12-05T08:22:39;101487.94;;;4.08;93.46
41596;BME280;27283;52.504;13.358;2022-12-05T08:25:14;101485.72;;;4.41;92.24
41596;BME280;27283;52.504;13.358;2022-12-05T08:27:46;101484.00;;;4.14;92.23
41596;BME280;27283;52.504;13.358;2022-12-05T08:30:20;101491.84;;;4.03;93.17
41596;BME280;27283;52.504;13.358;2022-12-05T08:32:52;101496.56;;;4.38;92.19
41596;BME280;27283;52.504;13.358;2022-12-05T08:35:24;101489.97;;;4.31;91.64
41596;BME280;27283;52.504;13.358;2022-12-05T08:37:58;101495.50;;;4.28;92.19
41596;BME280;27283;52.504;13.358;2022-12-05T08:40:32;101494.22;;;4.20;92.19
41596;BME280;27283;52.504;13.358;2022-12-05T08:43:05;101489.75;;;4.21;92.97
41596;BME280;27283;52.504;13.358;2022-12-05T08:45:50;101489.31;;;4.14;92.42
41596;BME280;27283;52.504;13.358;2022-12-05T08:48:23;101483.97;;;4.01;93.27
41596;BME280;27283;52.504;13.358;2022-12-05T08:50:58;101485.91;;;4.25;92.52
41596;BME280;27283;52.504;13.358;2022-12-05T08:53:32;101498.16;;;4.28;92.77
41596;BME280;27283;52.504;13.358;2022-12-05T08:56:13;101486.34;;;4.19;92.93
41596;BME280;27283;52.504;13.358;2022-12-05T08:58:53;101491.75;;;3.92;93.57
41596;BME280;27283;52.504;13.358;2022-12-05T09:01:37;101486.34;;;4.19;93.54
41596;BME280;27283;52.504;13.358;2022-12-05T09:04:10;101490.06;;;4.29;92.36
41596;BME280;27283;52.504;13.358;2022-12-05T09:06:43;101486.53;;;4.29;92.09
41596;BME280;27283;52.504;13.358;2022-12-05T09:09:15;101495.16;;;4.19;92.46
41596;BME280;27283;52.504;13.358;2022-12-05T09:11:50;101490.28;;;4.26;92.12
41596;BME280;27283;52.504;13.358;2022-12-05T09:14:22;101480.56;;;4.64;90.08
41596;BME280;27283;52.504;13.358;2022-12-05T09:17:04;101487.81;;;4.49;90.74
41596;BME280;27283;52.504;13.358;2022-12-05T09:19:36;101490.69;;;4.33;91.37
41596;BME280;27283;52.504;13.358;2022-12-05T09:22:09;101494.75;;;4.25;91.04
41596;BME280;27283;52.504;13.358;2022-12-05T09:24:41;101485.81;;;4.14;91.82
41596;BME280;27283;52.504;13.358;2022-12-05T09:27:13;101489.06;;;3.79;93.62
41596;BME280;27283;52.504;13.358;2022-12-05T09:29:45;101481.38;;;3.74;93.39
41596;BME280;27283;52.504;13.358;2022-12-05T09:32:21;101487.31;;;4.05;92.73
41596;BME280;27283;52.504;13.358;2022-12-05T09:34:53;101485.25;;;4.34;90.87
41596;BME280;27283;52.504;13.358;2022-12-05T09:37:26;101479.31;;;4.31;91.05
41596;BME280;27283;52.504;13.358;2022-12-05T09:40:15;101481.53;;;4.50;90.51
41596;BME280;27283;52.504;13.358;2022-12-05T09:42:57;101481.06;;;4.82;88.75
41596;BME280;27283;52.504;13.358;2022-12-05T09:45:36;101481.09;;;4.56;88.53
41596;BME280;27283;52.504;13.358;2022-12-05T09:48:15;101481.53;;;4.63;89.10
41596;BME280;27283;52.504;13.358;2022-12-05T09:50:54;101476.19;;;4.50;89.49
41596;BME280;27283;52.504;13.358;2022-12-05T09:53:30;101483.19;;;4.76;88.71
41596;BME280;27283;52.504;13.358;2022-12-05T09:56:05;101479.13;;;4.84;88.18
41596;BME280;27283;52.504;13.358;2022-12-05T09:58:45;101470.69;;;4.90;87.81
41596;BME280;27283;52.504;13.358;2022-12-05T10:01:28;101472.22;;;5.05;88.53
41596;BME280;27283;52.504;13.358;2022-12-05T10:04:32;101468.16;;;4.75;87.54
41596;BME280;27283;52.504;13.358;2022-12-05T10:07:13;101473.97;;;4.56;89.05
41596;BME280;27283;52.504;13.358;2022-12-05T10:09:55;101469.53;;;4.81;88.35
41596;BME280;27283;52.504;13.358;2022-12-05T10:12:49;101465.75;;;4.96;87.68
41596;BME280;27283;52.504;13.358;2022-12-05T10:15:29;101470.63;;;4.66;88.83
41596;BME280;27283;52.504;13.358;2022-12-05T10:18:09;101462.16;;;4.35;90.03
41596;BME280;27283;52.504;13.358;2022-12-05T10:20:51;101468.13;;;4.38;90.39
41596;BME280;27283;52.504;13.358;2022-12-05T10:23:29;101470.88;;;4.50;89.86
41596;BME280;27283;52.504;13.358;2022-12-05T10:26:28;101474.94;;;4.42;90.94
41596;BME280;27283;52.504;13.358;2022-12-05T10:29:09;101477.56;;;4.55;90.63
41596;BME280;27283;52.504;13.358;2022-12-05T10:31:46;101476.00;;;4.40;90.88
41596;BME280;27283;52.504;13.358;2022-12-05T10:34:27;101488.03;;;4.33;91.20
41596;BME280;27283;52.504;13.358;2022-12-05T10:37:09;101474.81;;;4.57;90.22
41596;BME280;27283;52.504;13.358;2022-12-05T10:39:43;101466.63;;;4.47;90.07
41596;BME280;27283;52.504;13.358;2022-12-05T10:42:18;101468.47;;;4.71;89.36
41596;BME280;27283;52.504;13.358;2022-12-05T10:44:56;101461.03;;;4.76;88.98
41596;BME280;27283;52.504;13.358;2022-12-05T10:47:31;101461.72;;;4.54;90.05
41596;BME280;27283;52.504;13.358;2022-12-05T10:50:09;101470.69;;;4.40;91.06
41596;BME280;27283;52.504;13.358;2022-12-05T10:52:52;101466.84;;;4.44;90.59
41596;BME280;27283;52.504;13.358;2022-12-05T10:55:30;101466.97;;;4.42;90.96
41596;BME280;27283;52.504;13.358;2022-12-05T10:58:11;101469.81;;;4.52;91.08
41596;BME280;27283;52.504;13.358;2022-12-05T11:00:48;101466.38;;;4.76;88.83
41596;BME280;27283;52.504;13.358;2022-12-05T11:03:26;101460.06;;;4.77;88.95
41596;BME280;27283;52.504;13.358;2022-12-05T11:06:02;101458.97;;;4.79;89.17
41596;BME280;27283;52.504;13.358;2022-12-05T11:08:54;101459.75;;;4.82;89.37
41596;BME280;27283;52.504;13.358;2022-12-05T11:11:33;101459.13;;;5.02;88.19
41596;BME280;27283;52.504;13.358;2022-12-05T11:14:19;101453.19;;;4.99;88.55
41596;BME280;27283;52.504;13.358;2022-12-05T11:16:54;101454.31;;;5.07;87.90
41596;BME280;27283;52.504;13.358;2022-12-05T11:19:30;101451.63;;;4.83;88.60
41596;BME280;27283;52.504;13.358;2022-12-05T11:22:04;101451.25;;;5.01;89.00
41596;BME280;27283;52.504;13.358;2022-12-05T11:24:56;101457.66;;;5.22;87.42
41596;BME280;27283;52.504;13.358;2022-12-05T11:27:35;101452.41;;;4.96;88.91
41596;BME280;27283;52.504;13.358;2022-12-05T11:30:18;101450.19;;;5.03;88.60
41596;BME280;27283;52.504;13.358;2022-12-05T11:33:10;101444.06;;;5.14;87.81
41596;BME280;27283;52.504;13.358;2022-12-05T11:35:45;101446.88;;;5.00;88.26
41596;BME280;27283;52.504;13.358;2022-12-05T11:38:21;101448.75;;;4.86;89.48
41596;BME280;27283;52.504;13.358;2022-12-05T11:41:16;101452.31;;;4.98;89.50
41596;BME280;27283;52.504;13.358;2022-12-05T11:44:08;101450.78;;;4.83;89.88
41596;BME280;27283;52.504;13.358;2022-12-05T11:46:54;101450.50;;;4.61;91.31
41596;BME280;27283;52.504;13.358;2022-12-05T11:49:50;101451.59;;;4.59;91.61
41596;BME280;27283;52.504;13.358;2022-12-05T11:52:41;101446.88;;;5.00;90.40
41596;BME280;27283;52.504;13.358;2022-12-05T11:55:20;101438.00;;;5.12;89.21
41596;BME280;27283;52.504;13.358;2022-12-05T11:58:11;101438.09;;;4.86;90.13
41596;BME280;27283;52.504;13.358;2022-12-05T12:00:58;101425.63;;;5.11;89.41
41596;BME280;27283;52.504;13.358;2022-12-05T12:06:47;101423.97;;;4.97;90.31
41596;BME280;27283;52.504;13.358;2022-12-05T12:09:32;101429.13;;;4.87;90.19
41596;BME280;27283;52.504;13.358;2022-12-05T12:12:17;101418.75;;;4.71;90.75
41596;BME280;27283;52.504;13.358;2022-12-05T12:15:07;101413.53;;;4.70;90.31
41596;BME280;27283;52.504;13.358;2022-12-05T12:17:48;101415.41;;;4.81;90.46
41596;BME280;27283;52.504;13.358;2022-12-05T12:20:34;101407.56;;;4.90;90.69
41596;BME280;27283;52.504;13.358;2022-12-05T12:23:32;101419.97;;;4.78;91.33
41596;BME280;27283;52.504;13.358;2022-12-05T12:26:10;101422.84;;;5.12;89.40
41596;BME280;27283;52.504;13.358;2022-12-05T12:28:55;101423.06;;;4.85;90.04
41596;BME280;27283;52.504;13.358;2022-12-05T12:31:48;101424.47;;;4.78;90.64
41596;BME280;27283;52.504;13.358;2022-12-05T12:34:46;101423.22;;;5.19;89.36
41596;BME280;27283;52.504;13.358;2022-12-05T12:37:29;101417.38;;;5.38;88.35
41596;BME280;27283;52.504;13.358;2022-12-05T12:40:12;101418.63;;;5.57;87.55
41596;BME280;27283;52.504;13.358;2022-12-05T12:42:55;101415.88;;;5.34;88.01
41596;BME280;27283;52.504;13.358;2022-12-05T12:45:48;101410.81;;;5.07;89.31
41596;BME280;27283;52.504;13.358;2022-12-05T12:48:44;101403.00;;;5.17;89.44
41596;BME280;27283;52.504;13.358;2022-12-05T12:51:23;101408.88;;;5.33;89.11
41596;BME280;27283;52.504;13.358;2022-12-05T12:57:16;101408.19;;;5.54;88.33
41596;BME280;27283;52.504;13.358;2022-12-05T13:00:01;101402.31;;;5.73;87.75
41596;BME280;27283;52.504;13.358;2022-12-05T13:02:41;101411.25;;;5.60;87.20
41596;BME280;27283;52.504;13.358;2022-12-05T13:05:25;101406.72;;;5.49;88.10
41596;BME280;27283;52.504;13.358;2022-12-05T13:08:03;101399.88;;;5.23;89.33
41596;BME280;27283;52.504;13.358;2022-12-05T13:10:38;101408.28;;;5.41;88.82
41596;BME280;27283;52.504;13.358;2022-12-05T13:13:15;101402.88;;;5.18;88.89
41596;BME280;27283;52.504;13.358;2022-12-05T13:15:51;101403.00;;;5.17;89.63
41596;BME280;27283;52.504;13.358;2022-12-05T13:18:26;101392.31;;;5.17;89.85
41596;BME280;27283;52.504;13.358;2022-12-05T13:21:05;101401.56;;;5.00;89.99
41596;BME280;27283;52.504;13.358;2022-12-05T13:23:44;101402.31;;;5.02;90.21
41596;BME280;27283;52.504;13.358;2022-12-05T13:26:18;101400.84;;;4.97;90.38
41596;BME280;27283;52.504;13.358;2022-12-05T13:29:04;101406.88;;;5.24;90.05
41596;BME280;27283;52.504;13.358;2022-12-05T13:31:39;101399.66;;;5.37;89.27
41596;BME280;27283;52.504;13.358;2022-12-05T13:34:42;101395.53;;;5.33;88.86
41596;BME280;27283;52.504;13.358;2022-12-05T13:37:25;101397.09;;;5.24;89.05
41596;BME280;27283;52.504;13.358;2022-12-05T13:40:27;101393.44;;;5.25;89.12
41596;BME280;27283;52.504;13.358;2022-12-05T13:43:14;101402.59;;;5.10;89.88
41596;BME280;27283;52.504;13.358;2022-12-05T13:45:59;101403.13;;;5.26;89.77
41596;BME280;27283;52.504;13.358;2022-12-05T13:48:36;101400.06;;;5.44;89.02
41596;BME280;27283;52.504;13.358;2022-12-05T13:51:19;101404.81;;;5.52;88.55
41596;BME280;27283;52.504;13.358;2022-12-05T13:54:04;101405.75;;;5.39;88.48
41596;BME280;27283;52.504;13.358;2022-12-05T13:56:50;101403.78;;;5.41;88.75